Alerts (04-01-2010)

“04-10-2010 09:00:42MV1:Trade long in Nifty above 6200, else from lower supports of 6180 with SL of 6150 for tgts of 6230 and 6250.
MV2:Key Supports: 6180/6150
Key Resistances: 6230/6250
Positive Sectors: BFSI & Metals
Stocks in Ban: Coreprotec & orchid Chem ..Karvy F&O Desk Hyd…”
“04-10-2010 09:04:06Buy VIDEOIND 284.80; SL: 281; Tgts: 293-295; TF: 5-7 days”
“04-10-2010 09:04:41Buy MAHSEAMLES Cmp: 415 SL: 410.50 Tgts: 425-427; TF: 5-7 days”
“04-10-2010 09:06:36BAJAJAUTO: BTST call given @ 1543 on 01/10/10. CMP: 1570 !!!”
“04-10-2010 09:07:18Buy WOCKPHARMA: 322; SL: 317; Tgts 335-337; TF: 3-5 days”
“04-10-2010 09:07:41Buy ORCHIDCHEM: Cmp: 278 SL: 272.50; Tgts; 290-292; TF: 5-7 days”
“04-10-2010 09:09:46M&M: BTST Call given @ 713 on 01/10. CMP; 738 !!!”
“04-10-2010 09:10:56NETWORK18: Call intd @ 151.35 on 01/10. CMP: 156.80 !!!”
“04-10-2010 09:11:46Buy ATLASCYCLE: Cmp: 282; SL: 277; Tgts: 292-295; TF 3-5 days”
“04-10-2010 09:13:47Buy KINETICMOT: Cmp: 25.20; SL: 23.75; Tgts: 30-31; TF: 3-4 Weeks ”
“04-10-2010 09:14:43Buy FIEMIND 179.50; SL: 175.50; Tgts: 190-192; TF; 7-10 days”
“04-10-2010 09:15:52Buy CADILAHC: Cmp: 699; SL: 690; Tgts: 718-722; TF: 5-7 days”
“04-10-2010 09:17:21Buy JUBLFOOD: Cmp: 492; SL: 487; Tgts: 500-503; Intraday”
“04-10-2010 09:18:06BAJAJAUTO: BTST call given @ 1543 on 01/10/10. CMP: 1583 !!! book full profits”
“04-10-2010 09:19:22Buy DPTL Cmp: 192.50; SL: 187; Tgts: 203-205; TF; 5-7 days”
“04-10-2010 09:20:02RANBAXY: Call given @ 573 on 01/10; CMP: 580.50 !!!”
“04-10-2010 09:22:44MANAPPURAM: Call given @ 151.25 on 01/10. CMP: 165 !!!! Book full profits”
“04-10-2010 09:23:05JINDALSTL: BTST Call intd @ 732 on 01/10. CMP: 740.15 !!!”
“04-10-2010 09:23:46PUNJLLOYD: Call intd @ 127.55 on 30/09. CMP: 133.40 !!!”
“04-10-2010 09:24:16MAHSEAMLES: Call given @ 415 today. CMP: 426 !!! 1st Tgt achd”
“04-10-2010 09:25:44HITACHIHOM: Call intd @ 330 on 01/10. CMP: 337 !!! ”
“04-10-2010 09:26:44Buy PDPL 319; SL: 313; Tgts: 340-343; TF; 7-10 days”
“04-10-2010 09:29:39GREAVESCOT: Call intd @ 439 on 01/10. CMP: 444 !!!”
“04-10-2010 09:31:01Buy TALBROAUTO; Cmp: 90.70; SL: 87.70; 101-103; TF: 7-10 days”
“04-10-2010 09:31:27
Intraday Stock Futures: Buy Infosys Oct Fut @ 3157-3160 SL: 3140(Spot) TF: Intraday….Karvy F&O Desk Hyd. (9:30)”
“04-10-2010 09:33:56Buy BERGEPAINT: CMp: 114.90; SL: 111.50; Tgts: 121-123; TF; 5-7 days”
“04-10-2010 09:35:54Buy TTKPRESTIG: Cmp: 1155; SL: 1144; Tgts: 1180-1190; TF: 2-3 days”
“04-10-2010 09:37:26PDPL: Call given @ 319 today. CMP: 324 !!! TGTs: 340-343”
“04-10-2010 09:39:45DIAPOWER: Call given @ 256.50 on 10/10. CMP: 264 !!!”
“04-10-2010 09:41:10 USDINR October: MCX USDINR October: Any rallies could get stalled in the 45.10-15 area now. Subsequently it is expected to inch lower towards 44.35-40 levels now from where a major recovery is expected. ”
“04-10-2010 09:41:15LAKSHVILAS: Call intd @ 131.90 on 29/09. Cmp: 136.65 !!!”
“04-10-2010 09:41:25USDINR oct: Looks extremly oversold…But hearing that 44.20 on spot is where huge orders to buy have been placed…”
“04-10-2010 09:43:28Intraday Stock Futures: Buy Union Bank Sept Fut @ 399-400 SL: 394(Spot) TF: Intraday….Karvy F&O Desk Hyd. (9:42 AM)”
“04-10-2010 09:43:52Intraday Stock Futures: Buy Union Bank Oct Fut @ 399-400 SL: 394(Spot) TF: Intraday….Karvy F&O Desk Hyd. (9:43 AM)”
“04-10-2010 09:44:42Buy EDELWEISS: Cmp: 61.20 SL: 58.70; Tgts: 65-67; TF: 8-10 days”
“04-10-2010 09:47:11Buy VIPIND: Cmp: 657; SL: 650; Tgts: 675-685; TF: 4-5 days”
“04-10-2010 09:51:46BTST: MANAPPURAM: CMp: 160; SL: 155; Tgts: 168-170”
“04-10-2010 09:57:54Buy TALWALKARS: Cmp: 235.45; SL: 230; Tgts: 245-247; TF: 5-6 days”
“04-10-2010 10:26:46HOVS: Call intd @ 143 on 01/10 CMP: 150 !!!!”
“04-10-2010 10:39:58
Intraday Stock Futures: Exit Infosys Oct Fut Long @ 3141-3142….Karvy F&O Desk Hyd. (10:39)”
“04-10-2010 10:42:10HOVS: Call intd @ 143 on 01/10 CMP: 152 !!! Book partial profits”
“04-10-2010 10:44:38HAVELLS: Intraday call given @ 850. CMP: 863 !!!”
“04-10-2010 10:52:41HOVS: Call intd @ 143 on 01/10 CMP: 154 !!! Book full profits”
“04-10-2010 10:57:20BTST: WIPRO: Cmp: 470.25; SL: 465; Tgts: 480-483”
“04-10-2010 10:58:41Buy TCS: Cmp: 966; SL: 961; Tgts: 975-977; Intraday”
“04-10-2010 11:00:28CANFINHOME: Call intd @ 147.40 on 30/09. CMP: 152-60 !!! Tgts: 158-160”
“04-10-2010 11:09:23Nifty Index Futures: Exit NIfty Oct Fut Long @ 6202-6206….Karvy F&O Desk Hyd. (11:08)

MINI-Nifty Index Futures: Exit MINI-Nifty Oct Fut Long @ 6202-6206….Karvy F&O Desk Hyd. (11:08)”
“04-10-2010 11:13:59GREAVESCOT: Call intd @ 439 on 01/10. CMP: 445 !!! Stay positive !!”
“04-10-2010 11:16:01VENKEYS: Cmp: 935; SL: 929; Tgts: 945-950; Intraday”
“04-10-2010 11:19:59Buy BGRENERGY: Cmp: 777.20; SL: 772; Tgts: 785-790; TF: 1-2 days”
“04-10-2010 11:21:00GBPINR oct : buy dips to 70.30-33 tgt 70.55 s/l 70.12Bookmark”
“04-10-2010 11:22:32USINR Oct POSITIONAL : Buy dips to 44.50-52 s/l 44.39 tgt 44.78”
“04-10-2010 11:32:12VIPIND: Cal l intd @ 657 today. Cmp: 662 !!! (day high 665) ”
“04-10-2010 11:33:30Buy RALLIS: Cmp: 1450; SL: 1440; Tgts: 1480-1490; TF: 4-5 days”
“04-10-2010 11:36:27VIPIND: Cal l intd @ 657 today. Cmp: 668 !!!!”
“04-10-2010 11:38:10VIPIND: Cal l intd @ 657 today. Cmp: 671 !!!!”
“04-10-2010 11:39:19VIPIND: Cal l intd @ 657 today. Cmp: 675 !!!!”
“04-10-2010 11:39:49VIPIND: Cal l intd @ 657 today. Cmp: 680 !!!!”
“04-10-2010 11:41:09VIPIND: Cal l intd @ 657 today. Cmp: 685 !!!!”
“04-10-2010 11:42:58BGRENERGY: 779 !! Accumulate for TGTs: 787-790”
“04-10-2010 11:45:39BTST: HANUNG: Cmp: 335.50; SL: 330; Tgts: 344-346”
“04-10-2010 11:48:47DHANBANK: Call intd @ 184.20 on 30/09. CMP: 187 !!! Tgts: 193-195”
“04-10-2010 11:51:14VIPIND: Call given @ 657 today. Cmp: 690 !!!!”
“04-10-2010 11:52:15HAVELLS: Intraday call given @ 850. CMP: 868 !!!!”
“04-10-2010 11:56:25DHANBANK: Call intd @ 184.20 on 30/09. CMP: 191.70 !!! Stay positive !!”
“04-10-2010 11:57:40BGRENERGY: Call given @ 777.20 today. 788 !!!!”
“04-10-2010 11:58:19BGRENERGY: Call given @ 777.20 today. 790 !!!!”
“04-10-2010 12:00:28VIPIND: Cal l intd @ 657 today. Cmp: 700 !!!!”
“04-10-2010 12:01:30VIPIND: Call given @ 657 today. Cmp: 710 !!!!”
“04-10-2010 12:05:12Buy DCM: Cmp: 132.35; SL: 128; Tgts: 139-141; TF: 3-4 days”
“04-10-2010 12:06:16Buy NILKAMAL: Cmp: 421; SL: 415; Tgts: 430-435; TF: 4-5 days”
“04-10-2010 12:08:05BIOCON: Call intd @ 363 on 01/10. CMP: 374 !!! book partial profits @ 375”
“04-10-2010 12:12:36Buy DELTACORP: Cmp: 84.65; SL: 81.65; Tgts: 90-93; TF: 7-8 days”
“04-10-2010 12:14:20Intraday Stock Futures: Buy Sobha Dev Oct Fut @ 399-400 SL: 392(Spot) TF: Intraday….Karvy F&O Desk Hyd…(12:14)”
“04-10-2010 12:16:32VIPIND: Cal l intd @ 657 today. Cmp: 720 !!!!”
“04-10-2010 12:18:57Pairtrade Book Profits in Tata Comm and Bharti Artl: Close Tata Comm one lot of Oct fut and 570 shares long @324-326 and Close one lot of Bharti Oct fut short recomm @363-365….karvy F&O Desk (12:18 PM)”
“04-10-2010 12:19:40VIPIND: Cal l intd @ 657 today. Cmp: 735 !!!!”
“04-10-2010 12:20:17TALWALKARS: Call intd @ 235.45. Cmp: 237 !! Accumulate for Tgts: 245-247”
“04-10-2010 12:23:09KINETICMOT: Call intd @ 25.20 today. CMP: 27.70 !!!”
“04-10-2010 12:25:41DLF: Cmp: 394; SL: 390.50; Tgts: 400-402; Intraday”
“04-10-2010 12:26:32DHANBANK: Call intd @ 184.20 on 30/09. CMP: 193 !!! ”
“04-10-2010 12:31:41Buy OFSS: Cmp: 2322; SL: 2312; Tgts: 2345-2355; Intraday”
“04-10-2010 12:36:59MANAPPURAM: BTST Call given @ 160. Cmp: 161.50 ! TGTS: 168-170”
“04-10-2010 12:37:38DHANBANK: Call intd @ 184.20 on 30/09. CMP: 195 !!!! STAY POSITIVE !!!”
“04-10-2010 12:40:15DHANBANK: Call intd @ 184.20 on 30/09. CMP: 197 !!!! ”
“04-10-2010 12:50:26TALWALKARS: Call intd @ 235.45. Cmp: 240 !!! Accumulate for Tgts: 248-250”
“04-10-2010 12:55:21SESAGOA: Call intd @ 352. CMp: 356 !!! TGTS: 362-364”
“04-10-2010 14:04:55GABRIEL call given @ 63.25 on 28/09 cmp: 66.50 !!!”
“04-10-2010 14:04:55BTST: BAJAJAUTO: Cmp: 1550; SL: 1544; Tgts: 1573-1575”
“04-10-2010 14:04:55BTST: UBHOLDINGS: Cmp: 307; SL: 302; Tgts: 315-319”
“04-10-2010 14:04:55HANUNG: BTST Call intd @ 335.40 today. CMP: 340 !!!”
“04-10-2010 14:04:55Exide Ind Liquid Fut: Buy Exide Ind Oct fut @167-168.50 Sl: 165 Tgt-176-177 TF- 3-4 days…. karvy F&O Desk (1:49 PM) ”
“04-10-2010 14:04:55BIOCON: Call intd @ 363 on 01/10. CMP: 377 !!! book full profits”
“04-10-2010 14:04:55RANBAXY: Call given @ 573 on 01/10; CMP: 584 !!!”
“04-10-2010 14:04:55Buy BIOCON: CMp: 378; SL: 374; Tgts 390-393; TF: 7-10 days”
“04-10-2010 14:06:22
Nifty Index Futures: Buy Nifty Oct Fut @ 6188-6192 SL: 6145(Spot) Tgt: 6214-6218 TF: Intraday….Karvy F&O Desk Hyd. (2:05)

MINI-Nifty Index Futures: Buy MINI-Nifty Oct Fut @ 6188-6192 SL: 6145(Spot) Tgt: 6214-6218 TF: Intraday….Karvy F&O Desk Hyd. (2:05)”
“04-10-2010 14:26:45Buy GLENMARK: Cmp: 312.70; SL: 308; Tgts: 323-325; TF: 5-7 days”
“04-10-2010 14:36:00Bull call spread in Suzlon: Buy one Oct 60 call @ 2.50-2.75 & sell one Oct 65 call @ 1.25-1.50; Break-even point: 61.50; Max profit: Rs 14,000; Max loss: Rs 6,000; TF: 7-8 days…karvy F&O Desk”
“04-10-2010 14:37:46Inntraday Stock futures: Exit Union Bank Oct Fut @ 398-399…Karvy F&O Research Hyd…”
“04-10-2010 14:41:27VIPIND: Cal l given @ 657 today. Cmp: 751 !!!! CIRCUIT !!!”
“04-10-2010 14:45:08Buy ASTEC: Cmp: 90.70; SL: 87.50 Tgts: 97-100 TF; 7-10 days”
“04-10-2010 14:45:24Buy ASTEC: Cmp: 90.70; SL: 87 Tgts: 97-100 TF; 7-10 days”
“04-10-2010 14:46:51HANUNG: BTST Call intd @ 335.40 today. CMP: 343 !!!”
“04-10-2010 14:47:43BIOCON: Call intd@ 378. Cmp: 381 !! Stay positive !! TGTS: 390-395”
“04-10-2010 14:48:41Buy IDBI: CMp: 162; SL: 158; Tgts: 168-170; TF; 7-8 days”
“04-10-2010 14:49:44Stay POSITIVE on BIOCON Cmp 383 !!! GOPICHAND”
“04-10-2010 14:51:00BIOCON: Call intd@ 378. Cmp: 388 !!!!”
“04-10-2010 14:52:10BIOCON: Call intd@ 378. Cmp: 390 !!!!”
“04-10-2010 14:54:25GLENMARK: Cmp: 313.40. Suggest to accumulate in decent qtys. TGTs: 323-325”
“04-10-2010 14:55:02PUNJLLOYD: Call intd @ 127.55 on 30/09. CMP: 136.50 !!! book partial profits”
“04-10-2010 14:56:03GLENMARK: 315 !!! Accumulate for TGTS: 323-325”
“04-10-2010 14:56:51RANBAXY: Call given @ 573 on 01/10; CMP: 592 !!!”
“04-10-2010 14:59:11Buy LUPIN: Cmp: 404; SL: 398; Tgts: 415-418; TF; 5-7 days”
“04-10-2010 15:00:52BTST: RELCAPITAL: Cmp: 821; SL: 815.50; Tgts: 830-834”
“04-10-2010 15:02:52Biocon Liquid Fut: Hold Biocon Oct fut long recomm with revised stop loss of 382 for targets 405-408….karvy F&O Desk (3:02 PM)”
“04-10-2010 15:03:03BGRENERGY: Call given @ 777.20 today. 794 !!!!”
“04-10-2010 15:04:04PUNJLLOYD: Call intd @ 127.55 on 30/09. CMP: 138 !!! book full profits”
“04-10-2010 15:06:09BAJAJAUTO: BTST call intd @ 1550. Cmp: 1535. Trigger stop loss”
“04-10-2010 15:07:33LUPIN: Call intd @ 404 today. CMP: 407.40 !! Accumulate for TGTS: 415-418”
“04-10-2010 15:08:43SESAGOA: Call intd @ 352 today. CMp: 364 !!!!”
“04-10-2010 15:09:54RANBAXY: Call given @ 573 on 01/10; CMP: 600 !!!! Book full profits”
“04-10-2010 15:12:02Ranbaxy Liquid Fut: Buy Ranbaxy Oct fut @602-604 SL: 590 tgt- 634-635 TF- 3-4 Days… karvY F&O Desk (3:07 PM)”
“04-10-2010 15:12:18BTST: RANBAXY: Cmp: 597; SL: 591; Tgts: 610-613”
“04-10-2010 15:13:15Intraday Stock Future: Close Sobha oct Fut Long @ 398-399…Karvy F&O Reasearch Hyd…”
“04-10-2010 15:15:21Stay very positive on RANBAXY Gopichand”
“04-10-2010 15:15:25Nifty Index Futures: Close Nifty Oct Fut Long @ 6186-6190….Karvy F&O Desk Hyd. (3:14)

MINI-Nifty Index Futures: Close MINI-Nifty Oct Fut Long @ 6186-6190….Karvy F&O Desk Hyd. (3:14)”
“04-10-2010 15:18:10HANUNG: BTST Call intd @ 335.40 today. CMP: 345 !!!!”
“04-10-2010 15:25:45HANUNG: BTST Call intd @ 335.40 today. CMP: 348 !!!!”

Today’s Levels (04-10-2010)

(Last Close : Sensex 20445 : Nifty Spot 6143)
Today’s Levels
Trade long if Sensex sustains above 20445 (Nifty 6143)
[Upside targets/resistances at 20475(6153)/20550(6175) or higher]
Trade short if Sensex fails to sustain above 20550 (Nifty 6175)
[Downside targets/supports at 20475(6153)/20445(6143) or lower]

FOR THE DAY (04-10-2010)

FOR THE DAY: Domestic markets are likely to open on a positive note, taking cues from the positive US and strong Asian indices. Traders are advised to trade long in Nifty above 6200 levels, else from 6180 with stop loss placed at 6150 levels, targeting higher levels of 6230 and 6250.

FOR THE WEEK (4-8, Oct 2010)

FOR THE WEEK: The immediate resistance levels for the Sensex and Nifty are at 20600-20650-20750 and 6230-6250-6300, respectively, while the support level is at 20500-20350-20150 and 6180-6150-6100. Any move close to the resistance levels can be used to book partial profits and initiate fresh positional long positions only if the Sensex manages to sustain above its support levels. However, considering the global uncertainty, maintain strict stop losses for all the long positions.